地図

経路データ

SID SEASON NUMBER BASIN SUBBASIN NAME ISO_TIME NATURE LAT LON WMO_WIND WMO_PRES WMO_AGENCY TRACK_TYPE DIST2LAND LANDFALL IFLAG USA_AGENCY USA_ATCF_ID USA_LAT USA_LON USA_RECORD USA_STATUS USA_WIND USA_PRES USA_SSHS USA_R34_NE USA_R34_SE USA_R34_SW USA_R34_NW USA_R50_NE USA_R50_SE USA_R50_SW USA_R50_NW USA_R64_NE USA_R64_SE USA_R64_SW USA_R64_NW USA_POCI USA_ROCI USA_RMW USA_EYE TOKYO_LAT TOKYO_LON TOKYO_GRADE TOKYO_WIND TOKYO_PRES TOKYO_R50_DIR TOKYO_R50_LONG TOKYO_R50_SHORT TOKYO_R30_DIR TOKYO_R30_LONG TOKYO_R30_SHORT TOKYO_LAND CMA_LAT CMA_LON CMA_CAT CMA_WIND CMA_PRES HKO_LAT HKO_LON HKO_CAT HKO_WIND HKO_PRES NEWDELHI_LAT NEWDELHI_LON NEWDELHI_GRADE NEWDELHI_WIND NEWDELHI_PRES NEWDELHI_CI NEWDELHI_DP NEWDELHI_POCI REUNION_LAT REUNION_LON REUNION_TYPE REUNION_WIND REUNION_PRES REUNION_TNUM REUNION_CI REUNION_RMW REUNION_R34_NE REUNION_R34_SE REUNION_R34_SW REUNION_R34_NW REUNION_R50_NE REUNION_R50_SE REUNION_R50_SW REUNION_R50_NW REUNION_R64_NE REUNION_R64_SE REUNION_R64_SW REUNION_R64_NW BOM_LAT BOM_LON BOM_TYPE BOM_WIND BOM_PRES BOM_TNUM BOM_CI BOM_RMW BOM_R34_NE BOM_R34_SE BOM_R34_SW BOM_R34_NW BOM_R50_NE BOM_R50_SE BOM_R50_SW BOM_R50_NW BOM_R64_NE BOM_R64_SE BOM_R64_SW BOM_R64_NW BOM_ROCI BOM_POCI BOM_EYE BOM_POS_METHOD BOM_PRES_METHOD NADI_LAT NADI_LON NADI_CAT NADI_WIND NADI_PRES WELLINGTON_LAT WELLINGTON_LON WELLINGTON_WIND WELLINGTON_PRES DS824_LAT DS824_LON DS824_STAGE DS824_WIND DS824_PRES TD9636_LAT TD9636_LON TD9636_STAGE TD9636_WIND TD9636_PRES TD9635_LAT TD9635_LON TD9635_WIND TD9635_PRES TD9635_ROCI NEUMANN_LAT NEUMANN_LON NEUMANN_CLASS NEUMANN_WIND NEUMANN_PRES MLC_LAT MLC_LON MLC_CLASS MLC_WIND MLC_PRES USA_GUST BOM_GUST BOM_GUST_PER REUNION_GUST REUNION_GUST_PER USA_SEAHGT USA_SEARAD_NE USA_SEARAD_SE USA_SEARAD_SW USA_SEARAD_NW STORM_SPEED STORM_DIR
1934260N13303 1934 54 NA NA NOT_NAMED 1934-09-16 12:00:00 TS 13.2000 -57.2000 35 hurdat_atl main 499 486 O_____________ hurdat_atl AL081934 13.2000 -57.2000 TS 35 0 8 306
1934260N13303 1934 54 NA NA NOT_NAMED 1934-09-16 15:00:00 TS 13.4501 -57.5499 main 493 475 P_____________ AL081934 13.4501 -57.5499 TS 35 0 8 306
1934260N13303 1934 54 NA NA NOT_NAMED 1934-09-16 18:00:00 TS 13.7000 -57.9000 35 hurdat_atl main 475 468 O_____________ hurdat_atl AL081934 13.7000 -57.9000 TS 35 0 8 306
1934260N13303 1934 54 NA NA NOT_NAMED 1934-09-16 21:00:00 TS 13.9499 -58.2501 main 463 463 P_____________ AL081934 13.9499 -58.2501 TS 35 0 8 306
1934260N13303 1934 54 NA NA NOT_NAMED 1934-09-17 00:00:00 TS 14.2000 -58.6000 35 hurdat_atl main 470 464 O_____________ hurdat_atl AL081934 14.2000 -58.6000 TS 35 0 8 306
1934260N13303 1934 54 NA NA NOT_NAMED 1934-09-17 03:00:00 TS 14.4424 -58.9501 main 467 467 P_____________ AL081934 14.4424 -58.9501 TS 37 0 8 306
1934260N13303 1934 54 NA NA NOT_NAMED 1934-09-17 06:00:00 TS 14.7000 -59.3000 40 hurdat_atl main 484 480 O_____________ hurdat_atl AL081934 14.7000 -59.3000 TS 40 0 9 308
1934260N13303 1934 54 NA NA NOT_NAMED 1934-09-17 09:00:00 TS 14.9774 -59.6501 main 501 501 P_____________ AL081934 14.9774 -59.6501 TS 40 0 9 312
1934260N13303 1934 54 NA CS NOT_NAMED 1934-09-17 12:00:00 TS 15.3000 -60.0000 40 hurdat_atl main 526 526 O_____________ hurdat_atl AL081934 15.3000 -60.0000 TS 40 0 10 316
1934260N13303 1934 54 NA CS NOT_NAMED 1934-09-17 15:00:00 TS 15.6849 -60.3501 main 563 563 P_____________ AL081934 15.6849 -60.3501 TS 42 0 11 320
1934260N13303 1934 54 NA CS NOT_NAMED 1934-09-17 18:00:00 TS 16.1000 -60.7000 45 hurdat_atl main 571 524 O_____________ hurdat_atl AL081934 16.1000 -60.7000 TS 45 0 11 320
1934260N13303 1934 54 NA CS NOT_NAMED 1934-09-17 21:00:00 TS 16.4999 -61.0501 main 514 468 P_____________ AL081934 16.4999 -61.0501 TS 45 0 10 320
1934260N13303 1934 54 NA CS NOT_NAMED 1934-09-18 00:00:00 TS 16.9000 -61.4000 45 hurdat_atl main 468 425 O_____________ hurdat_atl AL081934 16.9000 -61.4000 TS 45 0 10 320
1934260N13303 1934 54 NA CS NOT_NAMED 1934-09-18 03:00:00 TS 17.2999 -61.7501 main 414 374 P_____________ AL081934 17.2999 -61.7501 TS 45 0 10 320
1934260N13303 1934 54 NA CS NOT_NAMED 1934-09-18 06:00:00 TS 17.7000 -62.1000 45 hurdat_atl main 374 338 O_____________ hurdat_atl AL081934 17.7000 -62.1000 TS 45 0 11 321
1934260N13303 1934 54 NA CS NOT_NAMED 1934-09-18 09:00:00 TS 18.1224 -62.4426 main 338 295 P_____________ AL081934 18.1224 -62.4426 TS 45 0 10 320
1934260N13303 1934 54 NA CS NOT_NAMED 1934-09-18 12:00:00 TS 18.5000 -62.8000 45 hurdat_atl main 295 256 O_____________ hurdat_atl AL081934 18.5000 -62.8000 TS 45 0 10 313
1934260N13303 1934 54 NA CS NOT_NAMED 1934-09-18 15:00:00 TS 18.7874 -63.1851 main 256 221 P_____________ AL081934 18.7874 -63.1851 TS 42 0 9 303
1934260N13303 1934 54 NA NA NOT_NAMED 1934-09-18 18:00:00 TS 19.0000 -63.6000 40 hurdat_atl main 221 185 O_____________ hurdat_atl AL081934 19.0000 -63.6000 TS 40 0 9 295
1934260N13303 1934 54 NA NA NOT_NAMED 1934-09-18 21:00:00 TS 19.1649 -64.0427 main 190 153 P_____________ AL081934 19.1649 -64.0427 TS 40 0 9 289
1934260N13303 1934 54 NA NA NOT_NAMED 1934-09-19 00:00:00 TS 19.3000 -64.5000 40 hurdat_atl main 153 133 O_____________ hurdat_atl AL081934 19.3000 -64.5000 TS 40 0 9 288
1934260N13303 1934 54 NA NA NOT_NAMED 1934-09-19 03:00:00 TS 19.4424 -64.9576 main 128 127 P_____________ AL081934 19.4424 -64.9576 TS 40 0 9 289
1934260N13303 1934 54 NA NA NOT_NAMED 1934-09-19 06:00:00 TS 19.6000 -65.4000 40 hurdat_atl main 135 134 O_____________ hurdat_atl AL081934 19.6000 -65.4000 TS 40 0 9 292
1934260N13303 1934 54 NA NA NOT_NAMED 1934-09-19 09:00:00 TS 19.7624 -65.8078 main 156 156 P_____________ AL081934 19.7624 -65.8078 TS 40 0 9 298
1934260N13303 1934 54 NA NA NOT_NAMED 1934-09-19 12:00:00 TS 20.0000 -66.2000 40 hurdat_atl main 178 178 O_____________ hurdat_atl AL081934 20.0000 -66.2000 TS 40 0 9 308
1934260N13303 1934 54 NA NA NOT_NAMED 1934-09-19 15:00:00 TS 20.3474 -66.5928 main 212 212 P_____________ AL081934 20.3474 -66.5928 TS 40 0 11 317
1934260N13303 1934 54 NA NA NOT_NAMED 1934-09-19 18:00:00 TS 20.8000 -67.0000 40 hurdat_atl main 268 268 O_____________ hurdat_atl AL081934 20.8000 -67.0000 TS 40 0 13 321
1934260N13303 1934 54 NA NA NOT_NAMED 1934-09-19 21:00:00 TS 21.3274 -67.4426 main 298 298 P_____________ AL081934 21.3274 -67.4426 TS 40 0 14 323
1934260N13303 1934 54 NA NA NOT_NAMED 1934-09-20 00:00:00 TS 21.9000 -67.9000 40 hurdat_atl main 325 325 O_____________ hurdat_atl AL081934 21.9000 -67.9000 TS 40 0 14 324
1934260N13303 1934 54 NA NA NOT_NAMED 1934-09-20 03:00:00 TS 22.4573 -68.3429 main 369 364 P_____________ AL081934 22.4573 -68.3429 TS 40 0 14 323
1934260N13303 1934 54 NA NA NOT_NAMED 1934-09-20 06:00:00 TS 23.0000 -68.8000 40 hurdat_atl main 399 399 O_____________ hurdat_atl AL081934 23.0000 -68.8000 TS 40 0 14 322
1934260N13303 1934 54 NA NA NOT_NAMED 1934-09-20 09:00:00 TS 23.5523 -69.2849 main 445 442 P_____________ AL081934 23.5523 -69.2849 TS 37 0 14 317
1934260N13303 1934 54 NA NA NOT_NAMED 1934-09-20 12:00:00 TS 24.0000 -69.8000 35 hurdat_atl main 453 434 O_____________ hurdat_atl AL081934 24.0000 -69.8000 TS 35 0 12 307
1934260N13303 1934 54 NA NA NOT_NAMED 1934-09-20 15:00:00 TS 24.2672 -70.3279 main 443 417 P_____________ AL081934 24.2672 -70.3279 TS 35 0 11 292
1934260N13303 1934 54 NA NA NOT_NAMED 1934-09-20 18:00:00 TS 24.4000 -70.9000 35 hurdat_atl main 417 399 O_____________ hurdat_atl AL081934 24.4000 -70.9000 TS 35 0 11 281
1934260N13303 1934 54 NA NA NOT_NAMED 1934-09-20 21:00:00 TS 24.4797 -71.5202 main 399 377 P_____________ AL081934 24.4797 -71.5202 TS 32 -1 12 275
1934260N13303 1934 54 NA NA NOT_NAMED 1934-09-21 00:00:00 TS 24.5000 -72.2000 30 hurdat_atl main 377 369 O_____________ hurdat_atl AL081934 24.5000 -72.2000 TD 30 -1 13 271
1934260N13303 1934 54 NA NA NOT_NAMED 1934-09-21 03:00:00 TS 24.5073 -72.9351 main 369 368 P_____________ AL081934 24.5073 -72.9351 TD 30 -1 14 270
1934260N13303 1934 54 NA NA NOT_NAMED 1934-09-21 06:00:00 TS 24.5000 -73.7000 30 hurdat_atl main 372 323 O_____________ hurdat_atl AL081934 24.5000 -73.7000 TD 30 -1 14 268
1934260N13303 1934 54 NA NA NOT_NAMED 1934-09-21 09:00:00 TS 24.4477 -74.4956 main 323 252 P_____________ AL081934 24.4477 -74.4956 TD 27 -1 14 270
1934260N13303 1934 54 NA NA NOT_NAMED 1934-09-21 12:00:00 TS 24.5000 -75.2000 25 hurdat_atl main 252 203 O_____________ hurdat_atl AL081934 24.5000 -75.2000 TD 25 -1 12 285
1934260N13303 1934 54 NA NA NOT_NAMED 1934-09-21 15:00:00 TS 24.7446 -75.7249 main 203 174 P_____________ AL081934 24.7446 -75.7249 TD 25 -1 11 311
1934260N13303 1934 54 NA NA NOT_NAMED 1934-09-21 18:00:00 TS 25.2000 -76.1000 25 hurdat_atl main 179 174 O_____________ hurdat_atl AL081934 25.2000 -76.1000 TD 25 -1 12 331
1934260N13303 1934 54 NA NA NOT_NAMED 1934-09-21 21:00:00 TS 25.8098 -76.3806 main 178 178 P_____________ AL081934 25.8098 -76.3806 TD 25 -1 15 342
1934260N13303 1934 54 NA NA NOT_NAMED 1934-09-22 00:00:00 TS 26.6000 -76.6000 25 hurdat_atl main 218 218 O_____________ hurdat_atl AL081934 26.6000 -76.6000 TD 25 -1 18 346
1934260N13303 1934 54 NA NA NOT_NAMED 1934-09-22 03:00:00 TS 27.5201 -76.8720 main 289 289 P_____________ AL081934 27.5201 -76.8720 TD 25 -1 20 347
1934260N13303 1934 54 NA NA NOT_NAMED 1934-09-22 06:00:00 TS 28.5000 -77.1000 25 hurdat_atl main 331 323 O_____________ hurdat_atl AL081934 28.5000 -77.1000 TD 25 -1 20 350
1934260N13303 1934 54 NA NA NOT_NAMED 1934-09-22 09:00:00 TS 29.4599 -77.2525 main 330 330 P_____________ AL081934 29.4599 -77.2525 TD 25 -1 18 354
1934260N13303 1934 54 NA NA NOT_NAMED 1934-09-22 12:00:00 TS 30.3000 -77.3000 25 hurdat_atl main 360 312 O_____________ hurdat_atl AL081934 30.3000 -77.3000 TD 25 -1 15 0
1934260N13303 1934 54 NA NA NOT_NAMED 1934-09-22 15:00:00 TS 30.9399 -77.2380 main 312 280 P_____________ AL081934 30.9399 -77.2380 TD 25 -1 11 9
1934260N13303 1934 54 NA NA NOT_NAMED 1934-09-22 18:00:00 TS 31.4000 -77.1000 25 hurdat_atl main 280 262 O_____________ hurdat_atl AL081934 31.4000 -77.1000 TD 25 -1 8 16
1934260N13303 1934 54 NA NA NOT_NAMED 1934-09-22 21:00:00 TS 31.7450 -76.9648 main 262 239 P_____________ AL081934 31.7450 -76.9648 TD 25 -1 7 23
1934260N13303 1934 54 NA NA NOT_NAMED 1934-09-23 00:00:00 TS 32.0000 -76.8000 25 hurdat_atl main 239 224 O_____________ hurdat_atl AL081934 32.0000 -76.8000 TD 25 -1 6 31
1934260N13303 1934 54 NA NA NOT_NAMED 1934-09-23 03:00:00 TS 32.2575 -76.6074 main 220 215 P_____________ AL081934 32.2575 -76.6074 TD 25 -1 6 34
1934260N13303 1934 54 NA NA NOT_NAMED 1934-09-23 06:00:00 TS 32.5000 -76.4000 25 hurdat_atl main 215 206 O_____________ hurdat_atl AL081934 32.5000 -76.4000 TD 25 -1 6 35
1934260N13303 1934 54 NA NA NOT_NAMED 1934-09-23 09:00:00 TS 32.7475 -76.1977 main 213 195 P_____________ AL081934 32.7475 -76.1977 TD 25 -1 6 34
1934260N13303 1934 54 NA NA NOT_NAMED 1934-09-23 12:00:00 TS 33.0000 -76.0000 25 hurdat_atl main 195 O_____________ hurdat_atl AL081934 33.0000 -76.0000 TD 25 -1 6 34

IBTrACS Databaseについて

本データベースは、米国NOAAが公開する1842年以降の世界の熱帯低気圧のベストトラックデータアーカイブInternational Best Track Archive for Climate Stewardship (IBTrACS)を、ウェブで閲覧しやすい形式に変換したものです。

最終更新日:2021-11-26